sensor_id;sensor_type;location;lat;lon;timestamp;pressure;altitude;pressure_sealevel;temperature;humidity
69535;BME280;56754;51.568;5.048;2023-02-21T00:01:05;102081.72;;;13.41;65.02
69535;BME280;56754;51.568;5.048;2023-02-21T00:03:33;102080.41;;;13.39;65.34
69535;BME280;56754;51.568;5.048;2023-02-21T00:05:58;102078.03;;;13.37;65.48
69535;BME280;56754;51.568;5.048;2023-02-21T00:08:34;102075.66;;;13.36;65.06
69535;BME280;56754;51.568;5.048;2023-02-21T00:10:59;102083.00;;;13.30;65.05
69535;BME280;56754;51.568;5.048;2023-02-21T00:13:24;102080.91;;;13.27;64.85
69535;BME280;56754;51.568;5.048;2023-02-21T00:15:49;102078.00;;;13.24;65.12
69535;BME280;56754;51.568;5.048;2023-02-21T00:18:15;102075.59;;;13.22;65.60
69535;BME280;56754;51.568;5.048;2023-02-21T00:20:40;102080.97;;;13.22;65.96
69535;BME280;56754;51.568;5.048;2023-02-21T00:23:05;102084.75;;;13.21;65.49
69535;BME280;56754;51.568;5.048;2023-02-21T00:25:32;102082.66;;;13.18;65.57
69535;BME280;56754;51.568;5.048;2023-02-21T00:27:59;102086.44;;;13.17;65.79
69535;BME280;56754;51.568;5.048;2023-02-21T00:30:25;102090.19;;;13.16;65.92
69535;BME280;56754;51.568;5.048;2023-02-21T00:32:51;102088.09;;;13.13;65.11
69535;BME280;56754;51.568;5.048;2023-02-21T00:35:18;102084.94;;;13.11;65.92
69535;BME280;56754;51.568;5.048;2023-02-21T00:37:44;102079.84;;;13.09;65.27
69535;BME280;56754;51.568;5.048;2023-02-21T00:40:14;102088.22;;;13.08;65.94
69535;BME280;56754;51.568;5.048;2023-02-21T00:42:39;102090.06;;;13.07;66.36
69535;BME280;56754;51.568;5.048;2023-02-21T00:45:05;102085.03;;;13.06;65.58
69535;BME280;56754;51.568;5.048;2023-02-21T00:47:30;102083.44;;;13.05;66.09
69535;BME280;56754;51.568;5.048;2023-02-21T00:49:56;102081.81;;;13.04;66.21
69535;BME280;56754;51.568;5.048;2023-02-21T00:52:21;102079.44;;;13.02;66.25
69535;BME280;56754;51.568;5.048;2023-02-21T00:54:46;102083.22;;;13.01;66.05
69535;BME280;56754;51.568;5.048;2023-02-21T00:57:13;102078.16;;;13.00;66.31
69535;BME280;56754;51.568;5.048;2023-02-21T00:59:39;102070.38;;;12.98;66.37
69535;BME280;56754;51.568;5.048;2023-02-21T01:02:04;102071.47;;;12.97;66.23
69535;BME280;56754;51.568;5.048;2023-02-21T01:04:30;102062.72;;;12.91;65.68
69535;BME280;56754;51.568;5.048;2023-02-21T01:06:55;102068.38;;;12.90;66.17
69535;BME280;56754;51.568;5.048;2023-02-21T01:09:25;102065.19;;;12.88;66.61
69535;BME280;56754;51.568;5.048;2023-02-21T01:11:50;102061.72;;;12.87;66.46
69535;BME280;56754;51.568;5.048;2023-02-21T01:14:16;102061.22;;;12.85;66.41
69535;BME280;56754;51.568;5.048;2023-02-21T01:16:41;102059.91;;;12.83;66.54
69535;BME280;56754;51.568;5.048;2023-02-21T01:19:08;102060.22;;;12.81;66.62
69535;BME280;56754;51.568;5.048;2023-02-21T01:21:33;102058.31;;;12.82;67.31
69535;BME280;56754;51.568;5.048;2023-02-21T01:23:58;102057.53;;;12.81;67.25
69535;BME280;56754;51.568;5.048;2023-02-21T01:26:24;102049.97;;;12.83;67.04
69535;BME280;56754;51.568;5.048;2023-02-21T01:28:49;102059.13;;;12.82;67.39
69535;BME280;56754;51.568;5.048;2023-02-21T01:31:18;102055.63;;;12.82;66.43
69535;BME280;56754;51.568;5.048;2023-02-21T01:33:45;102051.66;;;12.79;66.98
69535;BME280;56754;51.568;5.048;2023-02-21T01:36:10;102055.44;;;12.78;67.14
69535;BME280;56754;51.568;5.048;2023-02-21T01:38:36;102055.72;;;12.77;67.23
69535;BME280;56754;51.568;5.048;2023-02-21T01:41:01;102046.09;;;12.75;67.12
69535;BME280;56754;51.568;5.048;2023-02-21T01:43:27;102046.88;;;12.76;67.49
69535;BME280;56754;51.568;5.048;2023-02-21T01:45:54;102049.84;;;12.74;67.31
69535;BME280;56754;51.568;5.048;2023-02-21T01:48:21;102044.78;;;12.73;66.80
69535;BME280;56754;51.568;5.048;2023-02-21T01:50:48;102051.25;;;12.72;67.17
69535;BME280;56754;51.568;5.048;2023-02-21T01:53:17;102038.91;;;12.71;66.86
69535;BME280;56754;51.568;5.048;2023-02-21T01:55:43;102042.69;;;12.70;67.06
69535;BME280;56754;51.568;5.048;2023-02-21T01:58:09;102043.78;;;12.69;67.43
69535;BME280;56754;51.568;5.048;2023-02-21T02:00:35;102044.06;;;12.67;67.56
69535;BME280;56754;51.568;5.048;2023-02-21T02:03:04;102036.28;;;12.66;66.61
69535;BME280;56754;51.568;5.048;2023-02-21T02:05:30;102034.50;;;12.61;66.66
69535;BME280;56754;51.568;5.048;2023-02-21T02:07:55;102037.47;;;12.60;66.91
69535;BME280;56754;51.568;5.048;2023-02-21T02:10:21;102037.00;;;12.58;67.54
69535;BME280;56754;51.568;5.048;2023-02-21T02:15:21;102031.91;;;12.56;67.26
69535;BME280;56754;51.568;5.048;2023-02-21T02:37:30;102012.50;;;12.45;68.05
69535;BME280;56754;51.568;5.048;2023-02-21T02:42:53;102003.38;;;12.46;67.94
69535;BME280;56754;51.568;5.048;2023-02-21T02:48:42;102002.06;;;12.44;68.40
69535;BME280;56754;51.568;5.048;2023-02-21T02:51:11;102002.84;;;12.44;68.49
69535;BME280;56754;51.568;5.048;2023-02-21T02:53:37;101997.50;;;12.44;68.40
69535;BME280;56754;51.568;5.048;2023-02-21T02:56:10;101996.72;;;12.44;68.13
69535;BME280;56754;51.568;5.048;2023-02-21T02:58:40;102005.53;;;12.44;68.65
69535;BME280;56754;51.568;5.048;2023-02-21T03:01:25;102000.47;;;12.43;68.60
69535;BME280;56754;51.568;5.048;2023-02-21T03:04:16;101992.44;;;12.43;68.37
69535;BME280;56754;51.568;5.048;2023-02-21T03:15:17;101985.84;;;12.35;67.71
69535;BME280;56754;51.568;5.048;2023-02-21T03:17:58;101983.16;;;12.35;68.83
69535;BME280;56754;51.568;5.048;2023-02-21T03:20:25;101981.28;;;12.36;69.21
69535;BME280;56754;51.568;5.048;2023-02-21T03:22:52;101985.25;;;12.38;68.80
69535;BME280;56754;51.568;5.048;2023-02-21T03:25:20;101985.56;;;12.37;68.91
69535;BME280;56754;51.568;5.048;2023-02-21T03:27:48;101994.41;;;12.37;68.87
69535;BME280;56754;51.568;5.048;2023-02-21T03:30:16;101983.38;;;12.39;68.97
69535;BME280;56754;51.568;5.048;2023-02-21T03:32:46;101981.00;;;12.37;68.72
69535;BME280;56754;51.568;5.048;2023-02-21T03:35:13;101977.53;;;12.37;69.23
69535;BME280;56754;51.568;5.048;2023-02-21T03:37:41;101979.09;;;12.38;69.00
69535;BME280;56754;51.568;5.048;2023-02-21T03:40:11;101970.56;;;12.36;68.27
69535;BME280;56754;51.568;5.048;2023-02-21T03:42:37;101980.50;;;12.35;68.79
69535;BME280;56754;51.568;5.048;2023-02-21T03:45:03;101975.44;;;12.34;69.09
69535;BME280;56754;51.568;5.048;2023-02-21T03:47:28;101978.91;;;12.34;69.32
69535;BME280;56754;51.568;5.048;2023-02-21T03:49:53;101975.13;;;12.35;69.03
69535;BME280;56754;51.568;5.048;2023-02-21T03:52:19;101968.97;;;12.35;69.01
69535;BME280;56754;51.568;5.048;2023-02-21T03:54:45;101968.97;;;12.35;69.05
69535;BME280;56754;51.568;5.048;2023-02-21T03:57:10;101969.75;;;12.35;69.17
69535;BME280;56754;51.568;5.048;2023-02-21T03:59:35;101974.34;;;12.35;69.03
69535;BME280;56754;51.568;5.048;2023-02-21T04:02:01;101979.97;;;12.33;69.22
69535;BME280;56754;51.568;5.048;2023-02-21T04:04:26;101981.59;;;12.34;69.21
69535;BME280;56754;51.568;5.048;2023-02-21T04:06:51;101976.22;;;12.34;69.08
69535;BME280;56754;51.568;5.048;2023-02-21T04:09:17;101975.72;;;12.32;69.00
69535;BME280;56754;51.568;5.048;2023-02-21T04:11:44;101979.19;;;12.33;69.16
69535;BME280;56754;51.568;5.048;2023-02-21T04:14:10;101977.28;;;12.33;69.34
69535;BME280;56754;51.568;5.048;2023-02-21T04:16:35;101977.00;;;12.35;69.28
69535;BME280;56754;51.568;5.048;2023-02-21T04:19:01;101970.84;;;12.34;68.97
69535;BME280;56754;51.568;5.048;2023-02-21T04:21:27;101974.03;;;12.36;69.09
69535;BME280;56754;51.568;5.048;2023-02-21T04:23:52;101978.59;;;12.36;69.05
69535;BME280;56754;51.568;5.048;2023-02-21T04:26:17;101970.84;;;12.34;68.87
69535;BME280;56754;51.568;5.048;2023-02-21T04:28:43;101966.56;;;12.33;68.95
69535;BME280;56754;51.568;5.048;2023-02-21T04:31:08;101967.09;;;12.35;68.97
69535;BME280;56754;51.568;5.048;2023-02-21T04:33:33;101964.72;;;12.34;69.00
69535;BME280;56754;51.568;5.048;2023-02-21T04:35:59;101967.38;;;12.34;69.01
69535;BME280;56754;51.568;5.048;2023-02-21T04:38:24;101971.66;;;12.35;69.05
69535;BME280;56754;51.568;5.048;2023-02-21T04:40:49;101972.44;;;12.35;68.97
69535;BME280;56754;51.568;5.048;2023-02-21T04:43:14;101966.28;;;12.35;68.92
69535;BME280;56754;51.568;5.048;2023-02-21T04:45:40;101966.28;;;12.35;68.86
69535;BME280;56754;51.568;5.048;2023-02-21T04:48:05;101965.00;;;12.32;68.83
69535;BME280;56754;51.568;5.048;2023-02-21T04:50:31;101952.97;;;12.29;68.72
69535;BME280;56754;51.568;5.048;2023-02-21T04:52:58;101952.16;;;12.29;69.05
69535;BME280;56754;51.568;5.048;2023-02-21T04:55:23;101951.66;;;12.27;68.64
69535;BME280;56754;51.568;5.048;2023-02-21T04:57:48;101960.53;;;12.27;69.32
69535;BME280;56754;51.568;5.048;2023-02-21T05:00:14;101958.91;;;12.26;69.70
69535;BME280;56754;51.568;5.048;2023-02-21T05:02:43;101962.38;;;12.27;69.31
69535;BME280;56754;51.568;5.048;2023-02-21T05:05:09;101963.19;;;12.27;68.91
69535;BME280;56754;51.568;5.048;2023-02-21T05:07:34;101957.84;;;12.27;69.10
69535;BME280;56754;51.568;5.048;2023-02-21T05:10:00;101957.00;;;12.27;69.12
69535;BME280;56754;51.568;5.048;2023-02-21T05:12:26;101953.53;;;12.26;69.22
69535;BME280;56754;51.568;5.048;2023-02-21T05:14:52;101948.97;;;12.27;69.19
69535;BME280;56754;51.568;5.048;2023-02-21T05:17:17;101950.88;;;12.26;69.33
69535;BME280;56754;51.568;5.048;2023-02-21T05:19:42;101952.75;;;12.26;69.04
69535;BME280;56754;51.568;5.048;2023-02-21T05:22:08;101957.59;;;12.24;68.86
69535;BME280;56754;51.568;5.048;2023-02-21T05:24:33;101959.50;;;12.23;69.42
69535;BME280;56754;51.568;5.048;2023-02-21T05:26:59;101957.59;;;12.24;69.41
69535;BME280;56754;51.568;5.048;2023-02-21T05:29:25;101961.06;;;12.24;69.33
69535;BME280;56754;51.568;5.048;2023-02-21T05:31:50;101962.97;;;12.24;69.65
69535;BME280;56754;51.568;5.048;2023-02-21T05:34:16;101968.63;;;12.22;69.65
69535;BME280;56754;51.568;5.048;2023-02-21T05:36:41;101966.75;;;12.23;69.29
69535;BME280;56754;51.568;5.048;2023-02-21T05:39:08;101959.50;;;12.23;69.87
69535;BME280;56754;51.568;5.048;2023-02-21T05:41:33;101964.56;;;12.25;69.33
69535;BME280;56754;51.568;5.048;2023-02-21T05:43:59;101965.66;;;12.24;69.30
69535;BME280;56754;51.568;5.048;2023-02-21T05:46:31;101965.66;;;12.24;69.62
69535;BME280;56754;51.568;5.048;2023-02-21T05:48:58;101959.50;;;12.23;69.16
69535;BME280;56754;51.568;5.048;2023-02-21T05:51:23;101964.06;;;12.23;69.50
69535;BME280;56754;51.568;5.048;2023-02-21T05:53:49;101963.56;;;12.21;69.28
69535;BME280;56754;51.568;5.048;2023-02-21T05:56:15;101963.28;;;12.22;69.33
69535;BME280;56754;51.568;5.048;2023-02-21T05:58:41;101953.63;;;12.21;69.33
69535;BME280;56754;51.568;5.048;2023-02-21T06:01:07;101959.28;;;12.20;68.96
69535;BME280;56754;51.568;5.048;2023-02-21T06:03:32;101957.72;;;12.19;69.79
69535;BME280;56754;51.568;5.048;2023-02-21T06:05:58;101959.28;;;12.20;69.58
69535;BME280;56754;51.568;5.048;2023-02-21T06:08:23;101958.50;;;12.19;69.81
69535;BME280;56754;51.568;5.048;2023-02-21T06:10:48;101961.47;;;12.18;69.60
69535;BME280;56754;51.568;5.048;2023-02-21T06:13:13;101963.34;;;12.17;69.61
69535;BME280;56754;51.568;5.048;2023-02-21T06:15:39;101965.22;;;12.17;69.71
69535;BME280;56754;51.568;5.048;2023-02-21T06:18:05;101963.06;;;12.19;69.30
69535;BME280;56754;51.568;5.048;2023-02-21T06:20:32;101961.47;;;12.18;69.91
69535;BME280;56754;51.568;5.048;2023-02-21T06:22:57;101965.22;;;12.17;69.72
69535;BME280;56754;51.568;5.048;2023-02-21T06:25:22;101967.59;;;12.18;70.22
69535;BME280;56754;51.568;5.048;2023-02-21T06:27:49;101967.13;;;12.16;69.89
69535;BME280;56754;51.568;5.048;2023-02-21T06:30:14;101959.88;;;12.17;69.76
69535;BME280;56754;51.568;5.048;2023-02-21T06:32:41;101965.50;;;12.15;69.99
69535;BME280;56754;51.568;5.048;2023-02-21T06:35:06;101966.59;;;12.14;69.77
69535;BME280;56754;51.568;5.048;2023-02-21T06:37:32;101971.19;;;12.14;69.90
69535;BME280;56754;51.568;5.048;2023-02-21T06:39:57;101970.38;;;12.13;69.89
69535;BME280;56754;51.568;5.048;2023-02-21T06:42:23;101968.19;;;12.15;70.18
69535;BME280;56754;51.568;5.048;2023-02-21T06:44:49;101967.41;;;12.15;70.08
69535;BME280;56754;51.568;5.048;2023-02-21T06:47:15;101968.19;;;12.15;70.52
69535;BME280;56754;51.568;5.048;2023-02-21T06:49:41;101965.81;;;12.14;70.23
69535;BME280;56754;51.568;5.048;2023-02-21T06:52:07;101960.47;;;12.14;70.28
69535;BME280;56754;51.568;5.048;2023-02-21T06:54:34;101968.19;;;12.15;69.90
69535;BME280;56754;51.568;5.048;2023-02-21T06:56:59;101972.75;;;12.15;69.96
69535;BME280;56754;51.568;5.048;2023-02-21T06:59:25;101977.84;;;12.16;69.80
69535;BME280;56754;51.568;5.048;2023-02-21T07:01:50;101971.19;;;12.14;70.36
69535;BME280;56754;51.568;5.048;2023-02-21T07:04:15;101979.72;;;12.16;70.22
69535;BME280;56754;51.568;5.048;2023-02-21T07:06:47;101972.69;;;12.20;70.70
69535;BME280;56754;51.568;5.048;2023-02-21T07:09:12;101975.56;;;12.23;70.32
69535;BME280;56754;51.568;5.048;2023-02-21T07:11:37;101974.47;;;12.24;70.19
69535;BME280;56754;51.568;5.048;2023-02-21T07:14:03;101979.56;;;12.26;70.04
69535;BME280;56754;51.568;5.048;2023-02-21T07:16:28;101973.09;;;12.27;69.98
69535;BME280;56754;51.568;5.048;2023-02-21T07:18:54;101981.16;;;12.27;69.69
69535;BME280;56754;51.568;5.048;2023-02-21T07:21:20;101982.75;;;12.28;69.89
69535;BME280;56754;51.568;5.048;2023-02-21T07:23:46;101983.53;;;12.28;69.86
69535;BME280;56754;51.568;5.048;2023-02-21T07:26:13;101990.00;;;12.27;69.55
69535;BME280;56754;51.568;5.048;2023-02-21T07:28:38;101981.97;;;12.27;69.65
69535;BME280;56754;51.568;5.048;2023-02-21T07:31:04;101973.09;;;12.27;69.14
69535;BME280;56754;51.568;5.048;2023-02-21T07:33:29;101973.09;;;12.27;69.21
69535;BME280;56754;51.568;5.048;2023-02-21T07:35:54;101981.16;;;12.27;69.55
69535;BME280;56754;51.568;5.048;2023-02-21T07:38:24;101982.75;;;12.28;69.83
69535;BME280;56754;51.568;5.048;2023-02-21T07:40:50;101980.06;;;12.28;69.55
69535;BME280;56754;51.568;5.048;2023-02-21T07:43:18;101984.34;;;12.29;70.24
69535;BME280;56754;51.568;5.048;2023-02-21T07:45:43;101982.75;;;12.28;69.61
69535;BME280;56754;51.568;5.048;2023-02-21T07:48:08;101978.19;;;12.28;69.69
69535;BME280;56754;51.568;5.048;2023-02-21T07:50:34;101980.88;;;12.28;69.90
69535;BME280;56754;51.568;5.048;2023-02-21T07:52:59;101964.00;;;12.28;69.56
69535;BME280;56754;51.568;5.048;2023-02-21T07:55:24;101974.13;;;12.31;69.94
69535;BME280;56754;51.568;5.048;2023-02-21T07:57:50;101978.31;;;12.37;69.83
69535;BME280;56754;51.568;5.048;2023-02-21T08:00:15;101992.44;;;12.43;69.46
69535;BME280;56754;51.568;5.048;2023-02-21T08:02:46;101986.19;;;12.47;69.55
69535;BME280;56754;51.568;5.048;2023-02-21T08:05:11;101974.38;;;12.48;69.19
69535;BME280;56754;51.568;5.048;2023-02-21T08:07:36;101972.19;;;12.50;68.92
69535;BME280;56754;51.568;5.048;2023-02-21T08:10:02;101973.81;;;12.51;69.02
69535;BME280;56754;51.568;5.048;2023-02-21T08:12:28;101977.28;;;12.52;68.92
69535;BME280;56754;51.568;5.048;2023-02-21T08:14:53;101990.38;;;12.53;68.79
69535;BME280;56754;51.568;5.048;2023-02-21T08:17:18;101982.31;;;12.53;68.83
69535;BME280;56754;51.568;5.048;2023-02-21T08:19:44;101987.41;;;12.55;68.64
69535;BME280;56754;51.568;5.048;2023-02-21T08:22:09;101983.94;;;12.55;68.69
69535;BME280;56754;51.568;5.048;2023-02-21T08:24:35;101975.88;;;12.55;68.80
69535;BME280;56754;51.568;5.048;2023-02-21T08:27:00;101972.41;;;12.54;68.33
69535;BME280;56754;51.568;5.048;2023-02-21T08:29:25;101980.47;;;12.54;68.34
69535;BME280;56754;51.568;5.048;2023-02-21T08:31:51;101978.56;;;12.55;67.91
69535;BME280;56754;51.568;5.048;2023-02-21T08:34:16;101981.25;;;12.55;68.31
69535;BME280;56754;51.568;5.048;2023-02-21T08:36:42;101976.69;;;12.55;68.70
69535;BME280;56754;51.568;5.048;2023-02-21T08:39:08;101983.63;;;12.56;68.50
69535;BME280;56754;51.568;5.048;2023-02-21T08:41:44;101971.84;;;12.57;68.32
69535;BME280;56754;51.568;5.048;2023-02-21T08:44:12;101972.91;;;12.56;68.12
69535;BME280;56754;51.568;5.048;2023-02-21T08:46:39;101973.69;;;12.57;68.33
69535;BME280;56754;51.568;5.048;2023-02-21T08:49:04;101975.31;;;12.58;68.12
69535;BME280;56754;51.568;5.048;2023-02-21T08:51:31;101966.47;;;12.57;67.96
69535;BME280;56754;51.568;5.048;2023-02-21T08:53:57;101969.16;;;12.57;67.76
69535;BME280;56754;51.568;5.048;2023-02-21T08:56:23;101972.09;;;12.56;67.87
69535;BME280;56754;51.568;5.048;2023-02-21T08:58:49;101969.16;;;12.57;68.08
69535;BME280;56754;51.568;5.048;2023-02-21T09:01:15;101969.94;;;12.58;67.82
69535;BME280;56754;51.568;5.048;2023-02-21T09:03:40;101962.97;;;12.57;67.67
69535;BME280;56754;51.568;5.048;2023-02-21T09:06:06;101962.97;;;12.57;67.64
69535;BME280;56754;51.568;5.048;2023-02-21T09:08:32;101956.53;;;12.58;67.79
69535;BME280;56754;51.568;5.048;2023-02-21T09:10:57;101964.56;;;12.58;67.53
69535;BME280;56754;51.568;5.048;2023-02-21T09:13:22;101963.78;;;12.57;67.52
69535;BME280;56754;51.568;5.048;2023-02-21T09:15:48;101959.22;;;12.58;67.70
69535;BME280;56754;51.568;5.048;2023-02-21T09:18:13;101960.78;;;12.59;67.75
69535;BME280;56754;51.568;5.048;2023-02-21T09:20:39;101960.00;;;12.58;67.98
69535;BME280;56754;51.568;5.048;2023-02-21T09:23:04;101971.25;;;12.60;67.71
69535;BME280;56754;51.568;5.048;2023-02-21T09:25:29;101964.00;;;12.61;67.67
69535;BME280;56754;51.568;5.048;2023-02-21T09:27:55;101951.66;;;12.60;67.51
69535;BME280;56754;51.568;5.048;2023-02-21T09:30:22;101950.06;;;12.59;67.40
69535;BME280;56754;51.568;5.048;2023-02-21T09:32:49;101955.44;;;12.59;67.35
69535;BME280;56754;51.568;5.048;2023-02-21T09:35:15;101946.28;;;12.60;67.42
69535;BME280;56754;51.568;5.048;2023-02-21T09:37:42;101953.25;;;12.61;67.66
69535;BME280;56754;51.568;5.048;2023-02-21T09:40:44;101957.53;;;12.62;67.41
69535;BME280;56754;51.568;5.048;2023-02-21T09:43:16;101948.69;;;12.61;67.16
69535;BME280;56754;51.568;5.048;2023-02-21T09:45:43;101938.25;;;12.60;67.21
69535;BME280;56754;51.568;5.048;2023-02-21T09:48:17;101942.53;;;12.61;67.20
69535;BME280;56754;51.568;5.048;2023-02-21T09:50:49;101952.75;;;12.59;67.19
69535;BME280;56754;51.568;5.048;2023-02-21T09:53:20;101954.31;;;12.60;67.23
69535;BME280;56754;51.568;5.048;2023-02-21T09:55:49;101952.47;;;12.60;67.09
69535;BME280;56754;51.568;5.048;2023-02-21T09:58:17;101958.13;;;12.59;67.29
69535;BME280;56754;51.568;5.048;2023-02-21T10:00:44;101949.28;;;12.58;67.21
69535;BME280;56754;51.568;5.048;2023-02-21T10:09:02;101957.00;;;12.60;67.20
69535;BME280;56754;51.568;5.048;2023-02-21T10:11:42;101964.00;;;12.61;67.32
69535;BME280;56754;51.568;5.048;2023-02-21T10:14:42;101956.22;;;12.59;67.02
69535;BME280;56754;51.568;5.048;2023-02-21T10:17:21;101955.16;;;12.60;67.05
69535;BME280;56754;51.568;5.048;2023-02-21T10:19:54;101952.47;;;12.60;67.05
69535;BME280;56754;51.568;5.048;2023-02-21T10:22:24;101958.91;;;12.59;66.99
69535;BME280;56754;51.568;5.048;2023-02-21T10:24:52;101955.44;;;12.59;66.96
69535;BME280;56754;51.568;5.048;2023-02-21T10:27:23;101947.38;;;12.59;66.78
69535;BME280;56754;51.568;5.048;2023-02-21T10:29:53;101958.41;;;12.57;66.88
69535;BME280;56754;51.568;5.048;2023-02-21T10:32:22;101957.59;;;12.57;66.97
69535;BME280;56754;51.568;5.048;2023-02-21T10:34:48;101954.63;;;12.58;67.12
69535;BME280;56754;51.568;5.048;2023-02-21T10:37:35;101950.84;;;12.59;67.07
69535;BME280;56754;51.568;5.048;2023-02-21T10:40:05;101953.25;;;12.61;67.05
69535;BME280;56754;51.568;5.048;2023-02-21T10:42:39;101954.84;;;12.62;67.00
69535;BME280;56754;51.568;5.048;2023-02-21T10:45:08;101960.19;;;12.62;67.22
69535;BME280;56754;51.568;5.048;2023-02-21T10:50:10;101954.25;;;12.65;67.13
69535;BME280;56754;51.568;5.048;2023-02-21T10:52:48;101942.41;;;12.66;67.11
69535;BME280;56754;51.568;5.048;2023-02-21T10:55:21;101953.16;;;12.66;67.16
69535;BME280;56754;51.568;5.048;2023-02-21T10:57:53;101954.75;;;12.67;67.23
69535;BME280;56754;51.568;5.048;2023-02-21T11:00:31;101949.41;;;12.67;67.06
69535;BME280;56754;51.568;5.048;2023-02-21T11:03:05;101942.94;;;12.68;67.44
69535;BME280;56754;51.568;5.048;2023-02-21T11:05:31;101941.53;;;12.70;67.37
69535;BME280;56754;51.568;5.048;2023-02-21T11:08:04;101939.97;;;12.69;67.40
69535;BME280;56754;51.568;5.048;2023-02-21T11:10:33;101943.13;;;12.71;67.53
69535;BME280;56754;51.568;5.048;2023-02-21T11:13:04;101939.38;;;12.72;67.56
69535;BME280;56754;51.568;5.048;2023-02-21T11:15:30;101935.59;;;12.73;67.59
69535;BME280;56754;51.568;5.048;2023-02-21T11:18:17;101930.22;;;12.73;67.33
69535;BME280;56754;51.568;5.048;2023-02-21T11:20:43;101932.91;;;12.73;67.59
69535;BME280;56754;51.568;5.048;2023-02-21T11:23:29;101931.00;;;12.74;67.28
69535;BME280;56754;51.568;5.048;2023-02-21T11:26:05;101937.47;;;12.73;67.33
69535;BME280;56754;51.568;5.048;2023-02-21T11:28:36;101918.69;;;12.73;67.38
69535;BME280;56754;51.568;5.048;2023-02-21T11:33:27;101911.75;;;12.72;67.51
69535;BME280;56754;51.568;5.048;2023-02-21T11:36:09;101911.75;;;12.72;67.39
69535;BME280;56754;51.568;5.048;2023-02-21T11:38:43;101913.63;;;12.71;67.20
69535;BME280;56754;51.568;5.048;2023-02-21T11:43:45;101907.97;;;12.73;67.04
69535;BME280;56754;51.568;5.048;2023-02-21T11:46:38;101897.25;;;12.73;67.25
69535;BME280;56754;51.568;5.048;2023-02-21T11:51:40;101896.44;;;12.72;67.05
69535;BME280;56754;51.568;5.048;2023-02-21T11:54:08;101901.50;;;12.74;66.89
69535;BME280;56754;51.568;5.048;2023-02-21T12:02:26;101887.31;;;12.73;66.72
69535;BME280;56754;51.568;5.048;2023-02-21T12:05:13;101881.94;;;12.73;66.87
69535;BME280;56754;51.568;5.048;2023-02-21T12:15:38;101877.16;;;12.70;66.63
69535;BME280;56754;51.568;5.048;2023-02-21T12:37:13;101867.03;;;12.67;66.44
69535;BME280;56754;51.568;5.048;2023-02-21T12:47:25;101868.13;;;12.66;66.46
69535;BME280;56754;51.568;5.048;2023-02-21T12:50:12;101860.56;;;12.68;66.52
69535;BME280;56754;51.568;5.048;2023-02-21T12:52:54;101859.50;;;12.69;66.38
69535;BME280;56754;51.568;5.048;2023-02-21T12:55:24;101864.53;;;12.71;66.38
69535;BME280;56754;51.568;5.048;2023-02-21T13:00:34;101853.81;;;12.71;66.43
69535;BME280;56754;51.568;5.048;2023-02-21T13:06:14;101850.06;;;12.72;66.16
69535;BME280;56754;51.568;5.048;2023-02-21T13:08:58;101845.47;;;12.72;66.22
69535;BME280;56754;51.568;5.048;2023-02-21T13:11:42;101851.63;;;12.73;65.96
69535;BME280;56754;51.568;5.048;2023-02-21T13:14:19;101844.69;;;12.72;65.79
69535;BME280;56754;51.568;5.048;2023-02-21T13:16:47;101839.31;;;12.72;65.39
69535;BME280;56754;51.568;5.048;2023-02-21T13:19:13;101834.75;;;12.72;65.72
69535;BME280;56754;51.568;5.048;2023-02-21T13:27:25;101834.44;;;12.74;65.35
69535;BME280;56754;51.568;5.048;2023-02-21T13:30:01;101833.66;;;12.73;65.23
69535;BME280;56754;51.568;5.048;2023-02-21T13:32:36;101835.53;;;12.73;65.45
69535;BME280;56754;51.568;5.048;2023-02-21T13:35:06;101830.97;;;12.73;65.47
69535;BME280;56754;51.568;5.048;2023-02-21T13:37:33;101829.38;;;12.72;65.34
69535;BME280;56754;51.568;5.048;2023-02-21T13:40:05;101828.59;;;12.72;65.42
69535;BME280;56754;51.568;5.048;2023-02-21T13:42:33;101824.81;;;12.73;65.88
69535;BME280;56754;51.568;5.048;2023-02-21T13:45:22;101820.25;;;12.73;65.65
69535;BME280;56754;51.568;5.048;2023-02-21T13:53:14;101822.13;;;12.73;65.37
69535;BME280;56754;51.568;5.048;2023-02-21T13:58:38;101814.69;;;12.70;65.24
69535;BME280;56754;51.568;5.048;2023-02-21T14:01:14;101815.47;;;12.70;65.68
69535;BME280;56754;51.568;5.048;2023-02-21T14:03:40;101811.69;;;12.71;65.55
69535;BME280;56754;51.568;5.048;2023-02-21T14:06:27;101811.41;;;12.73;65.78
69535;BME280;56754;51.568;5.048;2023-02-21T14:08:57;101807.13;;;12.72;65.72
69535;BME280;56754;51.568;5.048;2023-02-21T14:11:29;101808.72;;;12.73;65.95
69535;BME280;56754;51.568;5.048;2023-02-21T14:14:20;101806.81;;;12.73;66.05
69535;BME280;56754;51.568;5.048;2023-02-21T14:17:19;101811.41;;;12.73;65.78
69535;BME280;56754;51.568;5.048;2023-02-21T14:24:46;101801.78;;;12.72;66.18
69535;BME280;56754;51.568;5.048;2023-02-21T14:29:38;101795.31;;;12.73;66.75
69535;BME280;56754;51.568;5.048;2023-02-21T14:45:40;101783.00;;;12.72;66.26
69535;BME280;56754;51.568;5.048;2023-02-21T15:05:16;101774.72;;;12.68;66.53
69535;BME280;56754;51.568;5.048;2023-02-21T15:08:25;101767.50;;;12.69;66.48
69535;BME280;56754;51.568;5.048;2023-02-21T15:10:32;101770.19;;;12.69;66.81
69535;BME280;56754;51.568;5.048;2023-02-21T15:13:03;101771.25;;;12.68;66.37
69535;BME280;56754;51.568;5.048;2023-02-21T15:15:40;101772.38;;;12.67;66.36
69535;BME280;56754;51.568;5.048;2023-02-21T15:18:08;101772.38;;;12.67;66.47
69535;BME280;56754;51.568;5.048;2023-02-21T15:20:41;101768.91;;;12.66;66.61
69535;BME280;56754;51.568;5.048;2023-02-21T15:23:17;101770.47;;;12.67;66.98
69535;BME280;56754;51.568;5.048;2023-02-21T15:25:53;101770.47;;;12.67;66.60
69535;BME280;56754;51.568;5.048;2023-02-21T15:28:23;101773.16;;;12.67;66.54